createdAt,value
2018-03-25T00:00:20.101Z,96.70
2018-03-25T00:02:47.077Z,96.70
2018-03-25T00:05:13.306Z,96.60
2018-03-25T00:07:40.272Z,96.60
2018-03-25T00:10:06.506Z,96.60
2018-03-25T00:12:32.779Z,96.50
2018-03-25T00:14:58.994Z,96.50
2018-03-25T00:17:25.200Z,96.70
2018-03-25T00:19:51.434Z,96.90
2018-03-25T00:22:17.664Z,97.00
2018-03-25T00:24:43.896Z,97.00
2018-03-25T00:27:10.106Z,97.00
2018-03-25T00:29:36.599Z,96.90
2018-03-25T00:32:02.846Z,97.00
2018-03-25T00:34:29.066Z,97.00
2018-03-25T00:36:55.298Z,97.30
2018-03-25T00:39:21.522Z,97.20
2018-03-25T00:41:47.779Z,97.30
2018-03-25T00:44:14.015Z,97.50
2018-03-25T00:46:40.527Z,97.70
2018-03-25T00:49:06.820Z,97.80
2018-03-25T00:51:33.047Z,97.80
2018-03-25T00:53:59.291Z,97.70
2018-03-25T00:56:25.495Z,97.70
2018-03-25T00:58:51.729Z,97.70
2018-03-25T01:01:17.953Z,97.60
2018-03-25T01:03:45.200Z,97.40
2018-03-25T01:06:11.464Z,97.40
2018-03-25T01:08:38.427Z,97.20
2018-03-25T01:11:05.433Z,97.30
2018-03-25T01:13:31.669Z,97.30
2018-03-25T01:16:09.411Z,97.50
2018-03-25T01:18:35.656Z,97.50
2018-03-25T01:21:01.905Z,97.30
2018-03-25T01:23:28.934Z,97.20
2018-03-25T01:25:55.148Z,97.20
2018-03-25T01:28:21.390Z,97.20
2018-03-25T01:30:47.611Z,97.20
2018-03-25T01:33:13.847Z,97.00
2018-03-25T01:35:40.049Z,97.10
2018-03-25T01:38:06.275Z,97.30
2018-03-25T01:40:32.501Z,97.40
2018-03-25T01:42:58.707Z,97.40
2018-03-25T01:45:24.939Z,97.40
2018-03-25T01:47:51.235Z,97.40
2018-03-25T01:50:17.483Z,97.40
2018-03-25T01:52:43.707Z,97.40
2018-03-25T01:55:09.931Z,97.40
2018-03-25T01:57:36.165Z,97.40
2018-03-25T02:00:02.428Z,97.40
2018-03-25T02:02:28.665Z,97.40
2018-03-25T02:04:54.879Z,97.50
2018-03-25T02:07:21.118Z,97.40
2018-03-25T02:09:47.335Z,97.40
2018-03-25T02:12:14.309Z,97.50
2018-03-25T02:14:40.522Z,97.40
2018-03-25T02:17:06.717Z,97.40
2018-03-25T02:19:33.215Z,97.50
2018-03-25T02:22:00.173Z,97.40
2018-03-25T02:24:27.118Z,97.50
2018-03-25T02:26:53.340Z,97.50
2018-03-25T02:29:19.556Z,97.60
2018-03-25T02:31:46.040Z,97.60
2018-03-25T02:34:12.247Z,97.60
2018-03-25T02:36:38.447Z,97.60
2018-03-25T02:39:04.723Z,97.60
2018-03-25T02:41:30.947Z,97.50
2018-03-25T02:43:57.535Z,97.40
2018-03-25T02:46:23.747Z,97.40
2018-03-25T02:48:50.044Z,97.50
2018-03-25T02:51:16.256Z,97.50
2018-03-25T02:53:42.478Z,97.60
2018-03-25T02:56:08.734Z,97.50
2018-03-25T02:58:34.940Z,97.50
2018-03-25T03:01:01.553Z,97.40
2018-03-25T03:03:28.506Z,97.30
2018-03-25T03:05:55.485Z,97.30
2018-03-25T03:08:22.459Z,97.20
2018-03-25T03:10:48.683Z,97.20
2018-03-25T03:13:14.958Z,97.30
2018-03-25T03:15:41.200Z,97.30
2018-03-25T03:18:07.453Z,97.20
2018-03-25T03:20:33.690Z,97.20
2018-03-25T03:22:59.903Z,97.30
2018-03-25T03:25:26.123Z,97.30
2018-03-25T03:27:52.351Z,97.20
2018-03-25T03:30:19.333Z,97.30
2018-03-25T03:32:45.560Z,97.30
2018-03-25T03:35:11.808Z,97.30
2018-03-25T03:37:38.017Z,97.20
2018-03-25T03:40:04.996Z,97.20
2018-03-25T03:42:31.230Z,97.20
2018-03-25T03:44:58.176Z,97.30
2018-03-25T03:47:25.214Z,97.40
2018-03-25T03:49:51.415Z,97.40
2018-03-25T03:52:18.010Z,97.30
2018-03-25T03:54:44.204Z,97.30
2018-03-25T03:57:10.415Z,97.30
2018-03-25T03:59:37.393Z,97.20
2018-03-25T04:02:03.615Z,97.20
2018-03-25T04:04:29.847Z,97.10
2018-03-25T04:06:56.807Z,97.20
2018-03-25T04:09:23.807Z,97.10
2018-03-25T04:11:50.036Z,97.10
2018-03-25T04:14:16.245Z,97.10
2018-03-25T04:16:43.214Z,97.10
2018-03-25T04:19:09.442Z,97.00
2018-03-25T04:21:36.419Z,97.20
2018-03-25T04:24:02.645Z,97.40
2018-03-25T04:26:29.593Z,97.20
2018-03-25T04:28:56.563Z,97.30
2018-03-25T04:31:23.518Z,97.20
2018-03-25T04:33:50.479Z,97.20
2018-03-25T04:36:16.693Z,97.20
2018-03-25T04:38:43.947Z,97.10
2018-03-25T04:41:10.157Z,97.10
2018-03-25T04:43:36.365Z,97.10
2018-03-25T04:46:02.603Z,97.10
2018-03-25T04:48:28.918Z,97.10
2018-03-25T04:50:55.444Z,97.10
2018-03-25T04:53:21.665Z,96.70
2018-03-25T04:55:47.875Z,97.00
2018-03-25T04:58:14.086Z,97.00
2018-03-25T05:00:40.289Z,96.90
2018-03-25T05:03:06.510Z,96.80
2018-03-25T05:05:32.741Z,97.00
2018-03-25T05:07:58.957Z,97.10
2018-03-25T05:10:25.973Z,97.10
2018-03-25T05:12:52.210Z,97.10
2018-03-25T05:15:18.440Z,97.10
2018-03-25T05:17:44.648Z,98.70
2018-03-25T05:20:11.979Z,99.90
2018-03-25T05:22:38.212Z,99.90
2018-03-25T05:25:04.448Z,99.90
2018-03-25T05:27:31.418Z,97.80
2018-03-25T05:29:57.647Z,97.80
2018-03-25T05:32:23.878Z,95.20
2018-03-25T05:34:50.100Z,92.70
2018-03-25T05:37:16.324Z,92.40
2018-03-25T05:39:42.544Z,91.90
2018-03-25T05:42:09.490Z,89.90
2018-03-25T05:44:35.725Z,89.70
2018-03-25T05:47:02.004Z,88.50
2018-03-25T05:49:28.300Z,86.40
2018-03-25T05:51:54.520Z,85.50
2018-03-25T05:54:20.718Z,85.90
2018-03-25T05:56:46.946Z,87.10
2018-03-25T05:59:13.952Z,89.50
2018-03-25T06:01:40.193Z,89.50
2018-03-25T06:04:06.412Z,90.30
2018-03-25T06:06:32.657Z,90.80
2018-03-25T06:08:58.880Z,91.30
2018-03-25T06:11:25.117Z,91.80
2018-03-25T06:13:51.364Z,92.30
2018-03-25T06:16:17.574Z,92.60
2018-03-25T06:18:43.824Z,93.00
2018-03-25T06:21:10.805Z,93.60
2018-03-25T06:23:37.421Z,93.60
2018-03-25T06:26:04.393Z,94.00
2018-03-25T06:28:31.068Z,94.30
2018-03-25T06:30:57.317Z,94.70
2018-03-25T06:33:23.537Z,95.00
2018-03-25T06:35:49.769Z,95.30
2018-03-25T06:38:16.741Z,95.90
2018-03-25T06:40:42.951Z,96.20
2018-03-25T06:43:09.939Z,96.50
2018-03-25T06:45:36.159Z,96.40
2018-03-25T06:48:03.509Z,96.80
2018-03-25T06:50:29.745Z,96.80
2018-03-25T06:52:55.977Z,97.00
2018-03-25T06:55:22.255Z,97.40
2018-03-25T06:57:48.481Z,97.70
2018-03-25T07:00:15.453Z,99.90
2018-03-25T07:02:42.409Z,99.90
2018-03-25T07:05:09.366Z,99.90
2018-03-25T07:07:36.364Z,99.90
2018-03-25T07:10:02.616Z,99.90
2018-03-25T07:12:28.910Z,99.90
2018-03-25T07:14:55.138Z,99.90
2018-03-25T07:17:22.110Z,99.40
2018-03-25T07:19:48.357Z,99.40
2018-03-25T07:22:14.559Z,99.20
2018-03-25T07:24:40.798Z,98.90
2018-03-25T07:27:07.008Z,98.70
2018-03-25T07:29:33.228Z,98.60
2018-03-25T07:31:59.445Z,98.40
2018-03-25T07:34:26.392Z,98.10
2018-03-25T07:36:53.362Z,98.10
2018-03-25T07:39:20.318Z,98.10
2018-03-25T07:41:47.320Z,98.00
2018-03-25T07:44:13.546Z,98.00
2018-03-25T07:46:39.797Z,98.00
2018-03-25T07:49:06.037Z,97.90
2018-03-25T07:51:32.327Z,97.90
2018-03-25T07:53:59.397Z,98.10
2018-03-25T07:56:33.160Z,97.70
2018-03-25T07:58:59.394Z,97.60
2018-03-25T08:01:32.444Z,97.50
2018-03-25T08:03:58.696Z,97.50
2018-03-25T08:06:25.668Z,97.50
2018-03-25T08:08:51.886Z,97.50
2018-03-25T08:11:18.882Z,97.70
2018-03-25T08:13:45.128Z,97.70
2018-03-25T08:16:11.374Z,97.70
2018-03-25T08:18:37.592Z,97.70
2018-03-25T08:21:03.840Z,97.50
2018-03-25T08:23:30.055Z,97.30
2018-03-25T08:25:57.032Z,96.90
2018-03-25T08:28:23.256Z,96.80
2018-03-25T08:30:50.248Z,95.50
2018-03-25T08:33:16.496Z,95.50
2018-03-25T08:35:42.710Z,95.20
2018-03-25T08:38:09.235Z,95.00
2018-03-25T08:40:36.176Z,94.70
2018-03-25T08:43:02.394Z,94.70
2018-03-25T08:45:28.631Z,94.60
2018-03-25T08:47:54.843Z,96.90
2018-03-25T08:50:21.096Z,96.80
2018-03-25T08:52:48.089Z,95.60
2018-03-25T08:55:14.299Z,95.60
2018-03-25T08:57:40.515Z,93.80
2018-03-25T09:00:06.803Z,92.90
2018-03-25T09:02:33.049Z,92.80
2018-03-25T09:04:59.261Z,92.10
2018-03-25T09:07:25.485Z,90.60
2018-03-25T09:09:51.697Z,89.30
2018-03-25T09:12:18.678Z,88.20
2018-03-25T09:14:44.905Z,88.20
2018-03-25T09:17:11.177Z,86.40
2018-03-25T09:19:37.428Z,85.80
2018-03-25T09:22:03.706Z,85.60
2018-03-25T09:24:29.909Z,84.80
2018-03-25T09:26:56.138Z,84.40
2018-03-25T09:29:22.376Z,83.90
2018-03-25T09:31:48.625Z,84.50
2018-03-25T09:34:14.853Z,84.50
2018-03-25T09:36:41.074Z,83.80
2018-03-25T09:39:07.331Z,83.00
2018-03-25T09:41:33.554Z,83.40
2018-03-25T09:43:59.790Z,82.70
2018-03-25T09:46:26.747Z,82.40
2018-03-25T09:48:53.255Z,82.40
2018-03-25T09:51:19.503Z,82.10
2018-03-25T09:53:45.788Z,81.90
2018-03-25T09:56:12.082Z,82.00
2018-03-25T09:58:38.315Z,81.70
2018-03-25T10:01:10.680Z,81.50
2018-03-25T10:03:36.914Z,81.30
2018-03-25T10:06:03.184Z,80.60
2018-03-25T10:08:29.404Z,80.00
2018-03-25T10:10:55.690Z,79.30
2018-03-25T10:13:21.927Z,79.10
2018-03-25T10:15:48.884Z,77.60
2018-03-25T10:18:15.872Z,75.90
2018-03-25T10:20:42.106Z,75.80
2018-03-25T10:23:08.347Z,74.90
2018-03-25T10:25:35.445Z,74.20
2018-03-25T10:28:01.686Z,73.80
2018-03-25T10:30:27.933Z,72.00
2018-03-25T10:32:54.168Z,70.40
2018-03-25T10:35:20.396Z,70.20
2018-03-25T10:37:46.633Z,70.20
2018-03-25T10:40:12.874Z,68.40
2018-03-25T10:42:39.162Z,66.40
2018-03-25T10:45:05.392Z,64.80
2018-03-25T10:47:31.643Z,63.80
2018-03-25T10:49:57.862Z,62.30
2018-03-25T10:52:25.570Z,59.10
2018-03-25T10:54:52.566Z,58.90
2018-03-25T10:57:18.810Z,58.70
2018-03-25T10:59:45.038Z,57.60
2018-03-25T11:02:11.257Z,56.40
2018-03-25T11:04:37.508Z,55.30
2018-03-25T11:07:04.471Z,53.50
2018-03-25T11:09:30.717Z,53.40
2018-03-25T11:11:56.934Z,52.90
2018-03-25T11:14:23.917Z,50.80
2018-03-25T11:16:50.155Z,50.70
2018-03-25T11:19:16.409Z,51.10
2018-03-25T11:21:42.673Z,50.90
2018-03-25T11:24:08.920Z,50.80
2018-03-25T11:26:35.485Z,50.00
2018-03-25T11:29:08.736Z,49.70
2018-03-25T11:31:34.985Z,50.00
2018-03-25T11:34:01.237Z,49.20
2018-03-25T11:36:27.479Z,48.60
2018-03-25T11:38:53.716Z,47.20
2018-03-25T11:41:19.957Z,47.00
2018-03-25T11:43:46.249Z,47.40
2018-03-25T11:46:13.217Z,47.00
2018-03-25T11:48:40.216Z,46.60
2018-03-25T11:51:07.202Z,47.30
2018-03-25T11:53:33.443Z,47.00
2018-03-25T11:55:59.696Z,47.30
2018-03-25T11:58:25.913Z,46.40
2018-03-25T12:00:52.132Z,46.50
2018-03-25T12:03:19.126Z,45.00
2018-03-25T12:05:45.354Z,45.00
2018-03-25T12:08:11.618Z,44.60
2018-03-25T12:10:38.608Z,42.70
2018-03-25T12:13:04.844Z,42.70
2018-03-25T12:15:31.056Z,41.90
2018-03-25T12:17:58.076Z,41.90
2018-03-25T12:20:24.373Z,41.80
2018-03-25T12:22:51.334Z,42.20
2018-03-25T12:25:17.700Z,42.10
2018-03-25T12:27:43.970Z,41.50
2018-03-25T12:30:10.193Z,41.20
2018-03-25T12:32:36.452Z,41.50
2018-03-25T12:35:02.745Z,42.10
2018-03-25T12:37:28.966Z,42.50
2018-03-25T12:39:55.938Z,40.20
2018-03-25T12:42:22.188Z,40.20
2018-03-25T12:44:48.413Z,40.50
2018-03-25T12:47:15.482Z,39.30
2018-03-25T12:49:41.708Z,39.20
2018-03-25T12:52:08.702Z,40.20
2018-03-25T12:54:34.949Z,40.20
2018-03-25T12:57:01.197Z,40.70
2018-03-25T12:59:27.448Z,40.40
2018-03-25T13:01:53.686Z,39.20
2018-03-25T13:04:19.944Z,38.70
2018-03-25T13:06:46.192Z,38.80
2018-03-25T13:09:12.440Z,38.30
2018-03-25T13:11:38.691Z,38.00
2018-03-25T13:14:05.659Z,37.00
2018-03-25T13:16:32.639Z,37.70
2018-03-25T13:18:58.927Z,37.70
2018-03-25T13:21:25.166Z,38.30
2018-03-25T13:23:51.432Z,36.50
2018-03-25T13:26:18.689Z,37.30
2018-03-25T13:28:45.687Z,36.80
2018-03-25T13:31:12.005Z,36.70
2018-03-25T13:33:38.245Z,37.00
2018-03-25T13:36:05.225Z,36.80
2018-03-25T13:38:31.500Z,36.80
2018-03-25T13:40:57.711Z,38.00
2018-03-25T13:43:23.973Z,38.00
2018-03-25T13:45:50.247Z,38.10
2018-03-25T13:48:17.244Z,35.70
2018-03-25T13:50:43.501Z,35.70
2018-03-25T13:53:09.723Z,36.10
2018-03-25T13:55:36.041Z,35.80
2018-03-25T13:58:03.057Z,37.00
2018-03-25T14:00:29.316Z,37.00
2018-03-25T14:02:55.535Z,36.80
2018-03-25T14:05:21.760Z,35.90
2018-03-25T14:07:48.042Z,35.40
2018-03-25T14:10:14.284Z,35.80
2018-03-25T14:12:40.525Z,35.60
2018-03-25T14:15:06.740Z,35.20
2018-03-25T14:17:33.006Z,35.30
2018-03-25T14:19:59.252Z,35.80
2018-03-25T14:22:25.478Z,36.00
2018-03-25T14:24:51.731Z,36.00
2018-03-25T14:27:17.948Z,35.90
2018-03-25T14:29:44.232Z,35.30
2018-03-25T14:32:11.282Z,38.20
2018-03-25T14:34:38.278Z,37.20
2018-03-25T14:37:04.539Z,37.10
2018-03-25T14:39:30.758Z,36.00
2018-03-25T14:41:57.044Z,36.10
2018-03-25T14:44:23.254Z,36.20
2018-03-25T14:46:49.550Z,36.30
2018-03-25T14:49:16.522Z,35.40
2018-03-25T14:51:42.815Z,35.30
2018-03-25T14:54:09.048Z,35.90
2018-03-25T14:56:35.338Z,36.90
2018-03-25T14:59:01.556Z,37.10
2018-03-25T15:01:27.781Z,36.80
2018-03-25T15:03:54.048Z,38.20
2018-03-25T15:06:21.046Z,37.50
2018-03-25T15:08:47.320Z,37.50
2018-03-25T15:11:13.586Z,37.10
2018-03-25T15:13:40.570Z,37.10
2018-03-25T15:16:06.854Z,36.90
2018-03-25T15:18:33.082Z,36.80
2018-03-25T15:20:59.385Z,37.20
2018-03-25T15:23:25.624Z,37.00
2018-03-25T15:25:51.913Z,37.20
2018-03-25T15:28:18.203Z,36.90
2018-03-25T15:30:44.508Z,38.20
2018-03-25T15:33:10.782Z,37.10
2018-03-25T15:35:37.805Z,35.70
2018-03-25T15:38:04.147Z,35.60
2018-03-25T15:40:31.127Z,35.60
2018-03-25T15:42:57.367Z,35.60
2018-03-25T15:45:23.645Z,36.30
2018-03-25T15:47:49.883Z,36.20
2018-03-25T15:50:16.120Z,37.20
2018-03-25T15:52:42.343Z,36.60
2018-03-25T15:55:09.326Z,37.70
2018-03-25T15:57:35.619Z,37.60
2018-03-25T16:00:01.876Z,38.00
2018-03-25T16:02:28.896Z,38.00
2018-03-25T16:04:55.113Z,37.90
2018-03-25T16:07:21.616Z,38.00
2018-03-25T16:09:47.900Z,37.80
2018-03-25T16:12:14.849Z,37.80
2018-03-25T16:14:41.105Z,37.80
2018-03-25T16:17:07.373Z,37.80
2018-03-25T16:19:34.384Z,36.90
2018-03-25T16:22:00.664Z,36.90
2018-03-25T16:24:26.908Z,37.20
2018-03-25T16:26:53.149Z,37.50
2018-03-25T16:29:19.375Z,37.40
2018-03-25T16:31:45.626Z,38.00
2018-03-25T16:34:11.871Z,38.60
2018-03-25T16:36:38.112Z,39.20
2018-03-25T16:39:04.371Z,39.10
2018-03-25T16:41:30.875Z,39.30
2018-03-25T16:43:57.112Z,40.00
2018-03-25T16:46:23.364Z,40.60
2018-03-25T16:48:49.601Z,41.70
2018-03-25T16:51:15.880Z,42.40
2018-03-25T16:53:42.139Z,43.20
2018-03-25T16:56:09.131Z,45.10
2018-03-25T16:58:35.419Z,45.10
2018-03-25T17:01:01.789Z,45.50
2018-03-25T17:03:28.780Z,47.10
2018-03-25T17:05:55.066Z,47.00
2018-03-25T17:08:21.343Z,47.90
2018-03-25T17:10:47.601Z,48.40
2018-03-25T17:13:13.836Z,49.00
2018-03-25T17:15:40.083Z,49.60
2018-03-25T17:18:06.327Z,50.20
2018-03-25T17:20:32.575Z,50.70
2018-03-25T17:22:58.801Z,51.30
2018-03-25T17:25:25.035Z,52.10
2018-03-25T17:27:51.263Z,53.00
2018-03-25T17:30:18.305Z,54.90
2018-03-25T17:32:45.287Z,56.90
2018-03-25T17:35:11.532Z,56.40
2018-03-25T17:37:37.773Z,57.70
2018-03-25T17:40:04.149Z,58.80
2018-03-25T17:42:30.413Z,59.70
2018-03-25T17:44:56.659Z,60.40
2018-03-25T17:47:22.935Z,61.40
2018-03-25T17:49:49.198Z,62.90
2018-03-25T17:52:15.492Z,64.10
2018-03-25T17:54:42.528Z,65.90
2018-03-25T17:57:08.860Z,66.00
2018-03-25T17:59:35.137Z,67.00
2018-03-25T18:02:02.160Z,68.00
2018-03-25T18:04:28.502Z,67.90
2018-03-25T18:06:54.752Z,68.30
2018-03-25T18:09:21.028Z,68.70
2018-03-25T18:11:48.048Z,69.50
2018-03-25T18:14:14.336Z,69.50
2018-03-25T18:16:40.627Z,69.90
2018-03-25T18:19:06.920Z,70.40
2018-03-25T18:21:33.220Z,71.20
2018-03-25T18:23:59.516Z,71.70
2018-03-25T18:26:26.043Z,72.10
2018-03-25T18:28:53.038Z,72.60
2018-03-25T18:31:19.352Z,72.50
2018-03-25T18:33:46.378Z,72.90
2018-03-25T18:36:12.666Z,72.90
2018-03-25T18:38:38.958Z,73.50
2018-03-25T18:41:05.304Z,73.90
2018-03-25T18:43:31.882Z,74.00
2018-03-25T18:45:58.954Z,74.80
2018-03-25T18:48:25.256Z,74.80
2018-03-25T18:50:51.553Z,75.00
2018-03-25T18:53:17.897Z,75.40
2018-03-25T18:55:44.229Z,75.60
2018-03-25T18:58:10.532Z,75.80
2018-03-25T19:00:37.212Z,76.30
2018-03-25T19:03:04.262Z,77.10
2018-03-25T19:05:31.302Z,77.30
2018-03-25T19:07:57.675Z,77.30
2018-03-25T19:10:23.971Z,77.50
2018-03-25T19:12:50.277Z,77.90
2018-03-25T19:15:16.556Z,78.40
2018-03-25T19:17:43.126Z,78.30
2018-03-25T19:20:09.467Z,78.40
2018-03-25T19:22:35.783Z,79.00
2018-03-25T19:25:02.198Z,79.40
2018-03-25T19:27:29.261Z,79.80
2018-03-25T19:29:55.830Z,79.80
2018-03-25T19:32:22.179Z,80.00
2018-03-25T19:34:48.448Z,80.50
2018-03-25T19:37:14.786Z,80.80
2018-03-25T19:39:41.068Z,81.10
2018-03-25T19:42:07.408Z,81.20
2018-03-25T19:44:33.679Z,81.60
2018-03-25T19:46:59.947Z,81.80
2018-03-25T19:49:26.265Z,82.10
2018-03-25T19:51:52.569Z,82.60
2018-03-25T19:54:18.897Z,83.00
2018-03-25T19:56:46.013Z,83.20
2018-03-25T19:59:12.357Z,83.10
2018-03-25T20:01:38.676Z,83.10
2018-03-25T20:04:04.991Z,83.60
2018-03-25T20:06:32.020Z,84.00
2018-03-25T20:08:58.394Z,83.90
2018-03-25T20:11:24.647Z,84.20
2018-03-25T20:13:50.978Z,84.40
2018-03-25T20:16:17.320Z,84.40
2018-03-25T20:18:44.390Z,84.80
2018-03-25T20:21:10.703Z,84.80
2018-03-25T20:23:37.764Z,85.40
2018-03-25T20:26:04.810Z,86.60
2018-03-25T20:28:31.148Z,85.90
2018-03-25T20:30:57.568Z,86.20
2018-03-25T20:33:23.989Z,86.40
2018-03-25T20:35:50.261Z,86.60
2018-03-25T20:38:17.349Z,87.30
2018-03-25T20:40:43.661Z,87.30
2018-03-25T20:43:10.028Z,87.50
2018-03-25T20:45:36.328Z,87.60
2018-03-25T20:48:02.638Z,87.80
2018-03-25T20:50:29.712Z,88.30
2018-03-25T20:52:57.904Z,88.80
2018-03-25T20:55:24.398Z,88.80
2018-03-25T20:57:50.644Z,89.10
2018-03-25T21:00:16.908Z,89.30
2018-03-25T21:02:43.940Z,89.80
2018-03-25T21:05:10.191Z,89.80
2018-03-25T21:07:36.447Z,90.10
2018-03-25T21:10:02.701Z,90.30
2018-03-25T21:12:29.797Z,90.60
2018-03-25T21:14:56.975Z,90.60
2018-03-25T21:17:23.222Z,90.60
2018-03-25T21:19:49.492Z,90.60
2018-03-25T21:22:16.453Z,91.00
2018-03-25T21:24:43.220Z,90.80
2018-03-25T21:27:10.195Z,91.00
2018-03-25T21:29:36.800Z,91.00
2018-03-25T21:32:03.144Z,91.20
2018-03-25T21:34:29.383Z,91.40
2018-03-25T21:36:55.611Z,91.40
2018-03-25T21:39:22.075Z,91.50
2018-03-25T21:41:48.491Z,91.60
2018-03-25T21:44:14.719Z,91.80
2018-03-25T21:46:40.979Z,91.90
2018-03-25T21:49:07.227Z,92.20
2018-03-25T21:51:34.950Z,92.60
2018-03-25T21:54:01.185Z,92.40
2018-03-25T21:56:28.146Z,92.70
2018-03-25T21:58:54.392Z,92.70
2018-03-25T22:01:21.283Z,92.80
2018-03-25T22:03:47.531Z,92.80
2018-03-25T22:06:13.756Z,92.80
2018-03-25T22:08:39.999Z,92.90
2018-03-25T22:11:06.980Z,93.10
2018-03-25T22:13:33.216Z,93.10
2018-03-25T22:15:59.445Z,93.30
2018-03-25T22:18:29.676Z,93.40
2018-03-25T22:20:55.920Z,93.40
2018-03-25T22:23:22.176Z,93.50
2018-03-25T22:25:48.411Z,93.50
2018-03-25T22:28:14.688Z,93.50
2018-03-25T22:30:41.696Z,93.50
2018-03-25T22:33:07.944Z,93.50
2018-03-25T22:35:34.173Z,93.60
2018-03-25T22:38:00.755Z,93.60
2018-03-25T22:40:26.959Z,93.50
2018-03-25T22:42:53.197Z,93.60
2018-03-25T22:45:20.918Z,93.80
2018-03-25T22:47:47.145Z,93.90
2018-03-25T22:50:13.691Z,94.10
2018-03-25T22:52:39.948Z,94.30
2018-03-25T22:55:06.158Z,94.40
2018-03-25T22:57:32.705Z,94.40
2018-03-25T22:59:59.101Z,94.40
2018-03-25T23:02:25.337Z,94.40
2018-03-25T23:04:52.295Z,94.50
2018-03-25T23:07:18.523Z,94.50
2018-03-25T23:09:45.505Z,94.60
2018-03-25T23:12:11.740Z,94.60
2018-03-25T23:14:37.977Z,94.60
2018-03-25T23:17:04.207Z,94.60
2018-03-25T23:19:31.184Z,94.40
2018-03-25T23:21:57.418Z,94.40
2018-03-25T23:24:23.646Z,94.40
2018-03-25T23:26:50.613Z,94.50
2018-03-25T23:29:16.850Z,94.40
2018-03-25T23:31:43.858Z,94.30
2018-03-25T23:34:10.091Z,94.30
2018-03-25T23:36:36.293Z,94.30
2018-03-25T23:39:02.595Z,94.30
2018-03-25T23:41:28.803Z,94.30
2018-03-25T23:43:55.020Z,94.30
2018-03-25T23:46:21.255Z,94.40
2018-03-25T23:48:47.469Z,94.40
2018-03-25T23:51:13.701Z,94.30
2018-03-25T23:53:39.921Z,94.30
2018-03-25T23:56:06.168Z,94.30
2018-03-25T23:58:32.390Z,94.30
